createdAt,value
2018-04-11T00:01:13.637Z,14.90
2018-04-11T00:03:41.898Z,14.90
2018-04-11T00:06:10.189Z,14.90
2018-04-11T00:08:38.453Z,14.90
2018-04-11T00:11:06.758Z,15.00
2018-04-11T00:13:35.049Z,14.90
2018-04-11T00:16:03.330Z,14.80
2018-04-11T00:18:31.634Z,14.60
2018-04-11T00:21:01.154Z,14.70
2018-04-11T00:23:30.659Z,14.60
2018-04-11T00:25:59.911Z,14.60
2018-04-11T00:28:28.170Z,14.60
2018-04-11T00:30:56.454Z,14.60
2018-04-11T00:33:25.682Z,14.50
2018-04-11T00:35:53.958Z,14.50
2018-04-11T00:38:22.221Z,14.50
2018-04-11T00:40:50.527Z,14.40
2018-04-11T00:43:19.826Z,14.30
2018-04-11T00:45:48.087Z,14.30
2018-04-11T00:48:16.354Z,14.20
2018-04-11T00:50:44.658Z,14.40
2018-04-11T00:53:24.697Z,14.30
2018-04-11T00:55:52.990Z,14.40
2018-04-11T00:58:21.255Z,14.40
2018-04-11T01:00:49.578Z,14.40
2018-04-11T01:03:18.773Z,14.50
2018-04-11T01:05:47.044Z,14.50
2018-04-11T01:08:15.329Z,14.40
2018-04-11T01:10:43.599Z,14.40
2018-04-11T01:13:12.463Z,14.40
2018-04-11T01:15:40.717Z,14.40
2018-04-11T01:18:08.997Z,14.40
2018-04-11T01:20:37.295Z,14.40
2018-04-11T01:23:05.573Z,14.40
2018-04-11T01:25:33.851Z,14.40
2018-04-11T01:28:02.159Z,14.40
2018-04-11T01:30:31.628Z,14.30
2018-04-11T01:33:00.441Z,14.30
2018-04-11T01:35:29.170Z,14.20
2018-04-11T01:37:57.434Z,14.30
2018-04-11T01:40:25.729Z,14.40
2018-04-11T01:42:54.945Z,14.30
2018-04-11T01:45:23.242Z,14.20
2018-04-11T01:47:51.509Z,14.20
2018-04-11T01:50:19.811Z,14.20
2018-04-11T01:52:47.313Z,14.20
2018-04-11T01:55:15.589Z,14.30
2018-04-11T01:57:43.901Z,14.30
2018-04-11T02:00:12.169Z,14.30
2018-04-11T02:02:40.463Z,14.30
2018-04-11T02:05:08.725Z,14.30
2018-04-11T02:07:37.000Z,14.40
2018-04-11T02:10:05.289Z,14.40
2018-04-11T02:12:33.942Z,14.40
2018-04-11T02:15:02.238Z,14.30
2018-04-11T02:17:32.677Z,14.30
2018-04-11T02:20:00.943Z,14.30
2018-04-11T02:22:31.922Z,14.20
2018-04-11T02:25:01.122Z,14.20
2018-04-11T02:27:30.458Z,14.10
2018-04-11T02:29:58.754Z,14.10
2018-04-11T02:32:27.959Z,14.00
2018-04-11T02:34:56.233Z,14.00
2018-04-11T02:37:25.397Z,14.00
2018-04-11T02:39:53.681Z,14.00
2018-04-11T02:42:21.954Z,14.00
2018-04-11T02:44:50.253Z,14.20
2018-04-11T02:47:18.536Z,14.30
2018-04-11T02:49:46.826Z,14.20
2018-04-11T02:52:15.142Z,14.00
2018-04-11T02:54:43.397Z,14.00
2018-04-11T02:57:11.662Z,13.90
2018-04-11T02:59:39.947Z,13.90
2018-04-11T03:02:08.213Z,13.90
2018-04-11T03:04:36.505Z,13.90
2018-04-11T03:07:04.783Z,14.00
2018-04-11T03:09:33.079Z,13.90
2018-04-11T03:12:07.437Z,13.90
2018-04-11T03:14:35.719Z,13.80
2018-04-11T03:17:03.997Z,13.80
2018-04-11T03:19:32.330Z,13.70
2018-04-11T03:22:02.057Z,13.60
2018-04-11T03:24:31.376Z,13.60
2018-04-11T03:27:01.125Z,13.60
2018-04-11T03:29:30.582Z,13.50
2018-04-11T03:31:58.850Z,13.40
2018-04-11T03:34:27.121Z,13.30
2018-04-11T03:36:55.409Z,13.30
2018-04-11T03:39:23.668Z,13.40
2018-04-11T03:41:51.958Z,13.30
2018-04-11T03:44:20.222Z,13.20
2018-04-11T03:46:48.521Z,13.20
2018-04-11T03:49:16.794Z,13.20
2018-04-11T03:51:45.094Z,13.20
2018-04-11T03:54:13.391Z,13.20
2018-04-11T03:56:41.687Z,13.20
2018-04-11T03:59:11.134Z,13.30
2018-04-11T04:01:39.894Z,13.40
2018-04-11T04:04:08.169Z,13.40
2018-04-11T04:06:36.523Z,13.40
2018-04-11T04:09:05.498Z,13.40
2018-04-11T04:11:33.756Z,13.40
2018-04-11T04:14:17.237Z,13.30
2018-04-11T04:16:57.377Z,13.40
2018-04-11T04:19:37.521Z,13.40
2018-04-11T04:22:05.778Z,13.30
2018-04-11T04:24:34.101Z,13.40
2018-04-11T04:27:02.371Z,13.30
2018-04-11T04:29:31.438Z,13.20
2018-04-11T04:32:00.762Z,13.20
2018-04-11T04:34:29.063Z,13.20
2018-04-11T04:36:57.339Z,13.20
2018-04-11T04:39:25.622Z,13.20
2018-04-11T04:41:53.882Z,13.30
2018-04-11T04:44:22.184Z,13.40
2018-04-11T04:46:49.709Z,13.40
2018-04-11T04:49:18.002Z,13.20
2018-04-11T04:51:45.501Z,13.20
2018-04-11T04:54:13.793Z,13.20
2018-04-11T04:56:42.090Z,13.30
2018-04-11T04:59:10.348Z,13.30
2018-04-11T05:01:38.639Z,13.30
2018-04-11T05:04:06.929Z,13.30
2018-04-11T05:06:35.208Z,13.40
2018-04-11T05:09:03.520Z,13.40
2018-04-11T05:11:31.802Z,13.40
2018-04-11T05:14:01.262Z,13.40
2018-04-11T05:16:29.539Z,13.30
2018-04-11T05:18:57.801Z,13.30
2018-04-11T05:21:26.093Z,13.30
2018-04-11T05:23:54.361Z,13.30
2018-04-11T05:26:22.653Z,13.30
2018-04-11T05:28:50.141Z,13.30
2018-04-11T05:31:18.426Z,13.40
2018-04-11T05:33:46.695Z,13.50
2018-04-11T05:36:14.996Z,13.50
2018-04-11T05:38:43.254Z,13.60
2018-04-11T05:41:11.534Z,13.60
2018-04-11T05:43:39.793Z,13.50
2018-04-11T05:46:08.090Z,13.50
2018-04-11T05:48:36.353Z,13.50
2018-04-11T05:51:04.655Z,13.50
2018-04-11T05:53:33.918Z,13.50
2018-04-11T05:56:02.215Z,13.60
2018-04-11T05:58:31.174Z,13.60
2018-04-11T06:01:00.324Z,13.60
2018-04-11T06:03:29.609Z,13.60
2018-04-11T06:05:57.938Z,13.60
2018-04-11T06:08:26.175Z,13.70
2018-04-11T06:10:54.462Z,13.60
2018-04-11T06:13:22.746Z,13.60
2018-04-11T06:15:51.001Z,13.60
2018-04-11T06:18:19.300Z,13.60
2018-04-11T06:20:47.594Z,13.70
2018-04-11T06:23:15.865Z,13.60
2018-04-11T06:25:44.158Z,13.60
2018-04-11T06:28:12.421Z,13.60
2018-04-11T06:30:40.752Z,13.70
2018-04-11T06:33:09.037Z,13.80
2018-04-11T06:35:37.307Z,13.80
2018-04-11T06:38:05.605Z,13.70
2018-04-11T06:40:33.890Z,13.70
2018-04-11T06:43:03.201Z,13.70
2018-04-11T06:45:31.497Z,13.80
2018-04-11T06:48:00.461Z,13.80
2018-04-11T06:50:28.758Z,13.80
2018-04-11T06:52:57.026Z,13.70
2018-04-11T06:55:25.289Z,13.70
2018-04-11T06:57:55.577Z,13.70
2018-04-11T07:00:23.841Z,13.70
2018-04-11T07:02:52.131Z,13.70
2018-04-11T07:05:20.406Z,13.70
2018-04-11T07:07:48.709Z,13.70
2018-04-11T07:10:17.005Z,13.80
2018-04-11T07:12:45.317Z,13.90
2018-04-11T07:15:13.578Z,13.90
2018-04-11T07:17:42.760Z,13.90
2018-04-11T07:20:12.018Z,13.90
2018-04-11T07:22:40.836Z,14.00
2018-04-11T07:25:09.125Z,14.00
2018-04-11T07:27:37.386Z,13.90
2018-04-11T07:30:05.687Z,13.90
2018-04-11T07:32:33.949Z,13.90
2018-04-11T07:35:02.219Z,14.00
2018-04-11T07:37:30.531Z,13.90
2018-04-11T07:40:01.190Z,13.90
2018-04-11T07:42:30.222Z,14.00
2018-04-11T07:44:58.548Z,14.00
2018-04-11T07:47:26.821Z,14.20
2018-04-11T07:49:55.084Z,14.20
2018-04-11T07:52:23.387Z,14.00
2018-04-11T07:54:51.645Z,13.80
2018-04-11T07:57:19.940Z,13.80
2018-04-11T07:59:48.210Z,13.90
2018-04-11T08:02:16.507Z,13.90
2018-04-11T08:04:44.778Z,13.80
2018-04-11T08:07:13.091Z,13.70
2018-04-11T08:09:41.358Z,13.80
2018-04-11T08:12:09.634Z,13.70
2018-04-11T08:14:37.937Z,13.70
2018-04-11T08:17:06.202Z,13.70
2018-04-11T08:19:34.489Z,13.80
2018-04-11T08:22:02.791Z,13.80
2018-04-11T08:24:31.821Z,13.80
2018-04-11T08:27:01.270Z,13.80
2018-04-11T08:29:29.565Z,13.90
2018-04-11T08:31:57.861Z,14.00
2018-04-11T08:34:26.131Z,14.00
2018-04-11T08:36:54.427Z,13.90
2018-04-11T08:39:22.720Z,13.90
2018-04-11T08:41:50.995Z,13.80
2018-04-11T08:44:19.293Z,13.80
2018-04-11T08:46:47.557Z,13.80
2018-04-11T08:49:15.858Z,13.90
2018-04-11T08:51:44.118Z,14.20
2018-04-11T08:54:12.410Z,14.20
2018-04-11T08:56:40.669Z,14.10
2018-04-11T08:59:08.978Z,14.10
2018-04-11T09:01:37.267Z,14.20
2018-04-11T09:04:05.539Z,14.20
2018-04-11T09:06:33.838Z,14.20
2018-04-11T09:09:03.336Z,14.30
2018-04-11T09:11:32.589Z,14.30
2018-04-11T09:14:03.325Z,14.30
2018-04-11T09:16:32.510Z,14.20
2018-04-11T09:19:01.912Z,14.20
2018-04-11T09:21:31.357Z,14.30
2018-04-11T09:24:01.288Z,14.30
2018-04-11T09:26:29.603Z,14.40
2018-04-11T09:28:57.875Z,14.40
2018-04-11T09:31:26.134Z,14.40
2018-04-11T09:33:54.424Z,14.50
2018-04-11T09:36:22.685Z,14.60
2018-04-11T09:38:50.973Z,14.50
2018-04-11T09:41:19.231Z,14.50
2018-04-11T09:43:47.525Z,14.50
2018-04-11T09:46:15.784Z,14.50
2018-04-11T09:48:44.081Z,14.50
2018-04-11T09:51:12.336Z,14.50
2018-04-11T09:53:40.646Z,14.40
2018-04-11T09:56:08.928Z,14.30
2018-04-11T09:58:37.197Z,14.40
2018-04-11T10:01:05.488Z,14.50
2018-04-11T10:03:33.761Z,14.60
2018-04-11T10:06:02.064Z,14.90
2018-04-11T10:08:32.354Z,14.70
2018-04-11T10:11:01.450Z,14.60
2018-04-11T10:13:31.938Z,14.60
2018-04-11T10:16:02.401Z,14.50
2018-04-11T10:18:32.853Z,14.50
2018-04-11T10:21:02.910Z,14.60
2018-04-11T10:23:33.062Z,14.60
2018-04-11T10:26:03.309Z,14.60
2018-04-11T10:28:32.233Z,14.60
2018-04-11T10:31:00.913Z,14.70
2018-04-11T10:33:30.412Z,14.70
2018-04-11T10:35:58.713Z,14.70
2018-04-11T10:38:26.985Z,14.80
2018-04-11T10:40:55.241Z,14.80
2018-04-11T10:43:24.533Z,14.80
2018-04-11T10:45:52.796Z,14.90
2018-04-11T10:48:21.088Z,14.80
2018-04-11T10:50:49.350Z,14.80
2018-04-11T10:53:18.665Z,14.70
2018-04-11T10:55:46.939Z,14.80
2018-04-11T10:58:15.257Z,14.80
2018-04-11T11:00:43.528Z,14.80
2018-04-11T11:03:12.375Z,14.80
2018-04-11T11:05:40.646Z,14.80
2018-04-11T11:08:08.947Z,14.90
2018-04-11T11:10:37.208Z,14.80
2018-04-11T11:13:05.526Z,14.80
2018-04-11T11:15:33.811Z,14.80
2018-04-11T11:18:02.939Z,14.80
2018-04-11T11:20:33.125Z,14.90
2018-04-11T11:23:02.948Z,14.90
2018-04-11T11:25:33.416Z,14.90
2018-04-11T11:28:03.262Z,14.90
2018-04-11T11:30:31.994Z,14.90
2018-04-11T11:33:02.056Z,15.20
2018-04-11T11:35:32.099Z,15.10
2018-04-11T11:38:00.409Z,14.90
2018-04-11T11:40:28.716Z,14.70
2018-04-11T11:42:59.005Z,14.80
2018-04-11T11:45:27.282Z,14.70
2018-04-11T11:47:55.582Z,14.80
2018-04-11T11:50:23.854Z,14.80
2018-04-11T11:52:52.151Z,14.70
2018-04-11T11:55:20.415Z,14.80
2018-04-11T11:57:48.728Z,14.80
2018-04-11T12:00:17.002Z,14.80
2018-04-11T12:02:45.302Z,14.80
2018-04-11T12:05:13.581Z,14.80
2018-04-11T12:07:41.899Z,14.90
2018-04-11T12:10:10.200Z,14.90
2018-04-11T12:12:38.464Z,14.90
2018-04-11T12:15:06.753Z,14.90
2018-04-11T12:17:35.030Z,14.80
2018-04-11T12:20:04.529Z,14.80
2018-04-11T12:22:34.185Z,14.80
2018-04-11T12:25:03.686Z,14.70
2018-04-11T12:27:32.003Z,14.80
2018-04-11T12:30:01.161Z,14.80
2018-04-11T12:32:30.146Z,14.80
2018-04-11T12:34:58.413Z,14.80
2018-04-11T12:37:26.733Z,14.90
2018-04-11T12:39:55.018Z,14.80
2018-04-11T12:42:23.294Z,14.80
2018-04-11T12:44:51.598Z,14.80
2018-04-11T12:47:19.865Z,14.90
2018-04-11T12:49:48.174Z,14.90
2018-04-11T12:52:16.484Z,15.00
2018-04-11T12:54:44.785Z,15.10
2018-04-11T12:57:13.044Z,15.10
2018-04-11T12:59:41.343Z,15.20
2018-04-11T13:02:10.542Z,15.30
2018-04-11T13:04:38.851Z,15.40
2018-04-11T13:07:07.110Z,15.40
2018-04-11T13:09:35.372Z,15.40
2018-04-11T13:12:04.601Z,15.40
2018-04-11T13:14:32.870Z,15.50
2018-04-11T13:17:03.306Z,15.60
2018-04-11T13:19:32.475Z,15.60
2018-04-11T13:22:02.338Z,15.60
2018-04-11T13:24:30.943Z,15.50
2018-04-11T13:27:00.475Z,15.40
2018-04-11T13:29:28.769Z,15.10
2018-04-11T13:31:57.063Z,15.00
2018-04-11T13:34:25.366Z,14.90
2018-04-11T13:36:53.660Z,14.90
2018-04-11T13:39:21.929Z,14.80
2018-04-11T13:41:50.225Z,14.80
2018-04-11T13:44:18.502Z,14.70
2018-04-11T13:46:46.810Z,14.60
2018-04-11T13:49:15.081Z,14.60
2018-04-11T13:51:43.346Z,14.70
2018-04-11T13:54:11.642Z,14.60
2018-04-11T13:56:39.904Z,14.70
2018-04-11T13:59:08.189Z,14.70
2018-04-11T14:01:36.450Z,14.70
2018-04-11T14:04:04.770Z,14.70
2018-04-11T14:06:33.073Z,14.60
2018-04-11T14:09:02.654Z,14.70
2018-04-11T14:11:32.786Z,14.70
2018-04-11T14:14:02.736Z,14.60
2018-04-11T14:16:33.368Z,14.50
2018-04-11T14:19:01.654Z,14.40
2018-04-11T14:21:31.340Z,14.40
2018-04-11T14:24:00.742Z,14.50
2018-04-11T14:26:29.044Z,14.40
2018-04-11T14:28:57.378Z,14.50
2018-04-11T14:31:25.613Z,14.40
2018-04-11T14:33:53.915Z,14.30
2018-04-11T14:36:22.178Z,14.30
2018-04-11T14:38:50.478Z,14.30
2018-04-11T14:41:18.741Z,14.30
2018-04-11T14:43:47.006Z,14.30
2018-04-11T14:46:15.303Z,14.30
2018-04-11T14:48:43.570Z,14.40
2018-04-11T14:51:11.865Z,14.30
2018-04-11T14:53:43.709Z,14.40
2018-04-11T14:56:12.009Z,14.30
2018-04-11T14:58:40.282Z,14.30
2018-04-11T15:01:07.802Z,14.30
2018-04-11T15:03:36.989Z,14.40
2018-04-11T15:06:05.260Z,14.30
2018-04-11T15:08:34.453Z,14.40
2018-04-11T15:11:03.370Z,14.40
2018-04-11T15:13:33.676Z,14.40
2018-04-11T15:16:01.958Z,14.30
2018-04-11T15:18:31.150Z,14.40
2018-04-11T15:21:00.030Z,14.40
2018-04-11T15:23:28.325Z,14.40
2018-04-11T15:25:56.734Z,14.40
2018-04-11T15:28:25.950Z,14.30
2018-04-11T15:30:54.214Z,14.20
2018-04-11T15:33:29.632Z,14.20
2018-04-11T15:35:57.905Z,14.30
2018-04-11T15:38:26.198Z,14.30
2018-04-11T15:40:53.754Z,14.30
2018-04-11T15:43:22.028Z,14.30
2018-04-11T15:45:50.293Z,14.40
2018-04-11T15:48:18.598Z,14.40
2018-04-11T15:50:47.928Z,14.40
2018-04-11T15:53:16.133Z,14.50
2018-04-11T15:55:44.429Z,14.40
2018-04-11T15:58:12.709Z,14.40
2018-04-11T16:00:42.010Z,14.40
2018-04-11T16:03:10.314Z,14.40
2018-04-11T16:05:39.589Z,14.50
2018-04-11T16:08:07.849Z,14.50
2018-04-11T16:10:39.298Z,14.60
2018-04-11T16:13:07.576Z,14.70
2018-04-11T16:15:35.877Z,14.70
2018-04-11T16:18:04.714Z,14.80
2018-04-11T16:20:34.055Z,14.80
2018-04-11T16:23:02.353Z,14.80
2018-04-11T16:25:31.362Z,14.90
2018-04-11T16:28:00.269Z,14.80
2018-04-11T16:30:30.500Z,14.80
2018-04-11T16:32:58.772Z,14.70
2018-04-11T16:35:31.503Z,14.80
2018-04-11T16:38:00.819Z,14.80
2018-04-11T16:40:31.118Z,14.80
2018-04-11T16:43:00.076Z,14.80
2018-04-11T16:45:30.106Z,14.80
2018-04-11T16:47:58.417Z,14.80
2018-04-11T16:50:27.617Z,14.80
2018-04-11T16:52:55.926Z,14.80
2018-04-11T16:55:24.277Z,14.80
2018-04-11T16:57:52.541Z,14.80
2018-04-11T17:00:20.085Z,14.80
2018-04-11T17:02:48.422Z,14.80
2018-04-11T17:05:16.723Z,14.80
2018-04-11T17:07:45.050Z,14.80
2018-04-11T17:10:13.323Z,14.80
2018-04-11T17:12:41.597Z,14.80
2018-04-11T17:15:09.903Z,14.80
2018-04-11T17:17:38.178Z,14.80
2018-04-11T17:20:06.476Z,14.80
2018-04-11T17:22:47.359Z,14.80
2018-04-11T17:25:29.953Z,14.80
2018-04-11T17:28:09.301Z,14.80
2018-04-11T17:30:49.357Z,14.70
2018-04-11T17:33:17.665Z,14.70
2018-04-11T17:35:45.929Z,14.70
2018-04-11T17:38:14.210Z,14.60
2018-04-11T17:40:41.770Z,14.70
2018-04-11T17:43:10.056Z,14.60
2018-04-11T17:45:38.373Z,14.50
2018-04-11T17:48:06.632Z,14.50
2018-04-11T17:50:35.681Z,14.50
2018-04-11T17:53:04.789Z,14.40
2018-04-11T17:55:33.068Z,14.40
2018-04-11T17:58:01.993Z,14.40
2018-04-11T18:00:30.956Z,14.40
2018-04-11T18:03:00.204Z,14.30
2018-04-11T18:05:29.956Z,14.30
2018-04-11T18:07:58.263Z,14.20
2018-04-11T18:10:26.539Z,14.20
2018-04-11T18:12:54.882Z,14.20
2018-04-11T18:15:23.186Z,14.20
2018-04-11T18:17:51.498Z,14.20
2018-04-11T18:20:19.803Z,14.20
2018-04-11T18:22:48.093Z,14.10
2018-04-11T18:25:16.379Z,14.10
2018-04-11T18:27:44.695Z,14.10
2018-04-11T18:30:12.958Z,14.00
2018-04-11T18:32:41.274Z,13.90
2018-04-11T18:35:09.561Z,13.90
2018-04-11T18:37:37.862Z,13.90
2018-04-11T18:40:06.129Z,13.90
2018-04-11T18:42:34.428Z,13.80
2018-04-11T18:45:02.703Z,13.80
2018-04-11T18:47:32.065Z,13.80
2018-04-11T18:50:00.734Z,13.70
2018-04-11T18:52:29.038Z,13.70
2018-04-11T18:54:57.334Z,13.70
2018-04-11T18:57:25.632Z,13.70
2018-04-11T18:59:53.889Z,13.60
2018-04-11T19:02:22.205Z,13.50
2018-04-11T19:04:52.463Z,13.50
2018-04-11T19:07:20.813Z,13.50
2018-04-11T19:09:49.078Z,13.50
2018-04-11T19:12:17.884Z,13.50
2018-04-11T19:14:46.177Z,13.50
2018-04-11T19:17:14.457Z,13.50
2018-04-11T19:19:42.762Z,13.40
2018-04-11T19:22:11.073Z,13.40
2018-04-11T19:24:39.370Z,13.30
2018-04-11T19:27:07.311Z,13.30
2018-04-11T19:29:36.598Z,13.20
2018-04-11T19:32:04.926Z,13.20
2018-04-11T19:34:33.203Z,13.10
2018-04-11T19:37:01.477Z,13.10
2018-04-11T19:39:30.456Z,13.10
2018-04-11T19:41:58.733Z,13.10
2018-04-11T19:44:27.096Z,13.10
2018-04-11T19:46:55.342Z,13.00
2018-04-11T19:49:23.619Z,13.00
2018-04-11T19:51:51.925Z,13.00
2018-04-11T19:54:20.189Z,13.00
2018-04-11T19:56:47.754Z,12.90
2018-04-11T19:59:16.040Z,12.90
2018-04-11T20:01:44.301Z,12.80
2018-04-11T20:04:12.593Z,12.90
2018-04-11T20:06:41.813Z,12.80
2018-04-11T20:09:10.110Z,12.70
2018-04-11T20:11:38.384Z,12.70
2018-04-11T20:14:07.097Z,12.60
2018-04-11T20:16:35.920Z,12.60
2018-04-11T20:19:03.426Z,12.60
2018-04-11T20:21:31.726Z,12.50
2018-04-11T20:24:00.796Z,12.50
2018-04-11T20:26:29.090Z,12.50
2018-04-11T20:28:57.395Z,12.50
2018-04-11T20:31:25.676Z,12.40
2018-04-11T20:33:53.950Z,12.30
2018-04-11T20:36:22.264Z,12.30
2018-04-11T20:38:50.540Z,12.30
2018-04-11T20:41:18.804Z,12.30
2018-04-11T20:43:47.271Z,12.30
2018-04-11T20:46:15.624Z,12.30
2018-04-11T20:48:43.943Z,12.30
2018-04-11T20:51:12.205Z,12.10
2018-04-11T20:53:40.474Z,12.10
2018-04-11T20:56:08.000Z,12.10
2018-04-11T20:58:36.265Z,12.10
2018-04-11T21:01:04.609Z,12.20
2018-04-11T21:03:32.897Z,12.10
2018-04-11T21:06:00.460Z,12.10
2018-04-11T21:08:28.731Z,12.10
2018-04-11T21:10:57.000Z,12.00
2018-04-11T21:13:25.264Z,12.10
2018-04-11T21:15:54.503Z,12.00
2018-04-11T21:18:22.766Z,11.90
2018-04-11T21:20:51.047Z,11.90
2018-04-11T21:23:19.346Z,11.90
2018-04-11T21:25:47.654Z,12.00
2018-04-11T21:28:15.948Z,12.00
2018-04-11T21:30:44.240Z,11.90
2018-04-11T21:33:12.938Z,11.90
2018-04-11T21:35:41.223Z,11.90
2018-04-11T21:38:09.534Z,11.90
2018-04-11T21:40:37.829Z,11.90
2018-04-11T21:43:05.338Z,11.90
2018-04-11T21:45:33.637Z,11.80
2018-04-11T21:48:01.911Z,11.80
2018-04-11T21:50:30.163Z,11.80
2018-04-11T21:52:58.441Z,11.80
2018-04-11T21:55:26.743Z,11.90
2018-04-11T21:57:55.007Z,11.80
2018-04-11T22:00:23.301Z,11.80
2018-04-11T22:02:51.592Z,11.80
2018-04-11T22:05:19.857Z,11.80
2018-04-11T22:07:48.149Z,11.80
2018-04-11T22:10:16.424Z,11.70
2018-04-11T22:12:45.653Z,11.60
2018-04-11T22:15:13.932Z,11.50
2018-04-11T22:17:42.233Z,11.50
2018-04-11T22:20:10.497Z,11.60
2018-04-11T22:22:38.778Z,11.40
2018-04-11T22:25:07.046Z,11.30
2018-04-11T22:27:35.941Z,11.40
2018-04-11T22:30:04.237Z,11.40
2018-04-11T22:32:32.513Z,11.30
2018-04-11T22:35:02.026Z,11.30
2018-04-11T22:37:30.746Z,11.40
2018-04-11T22:39:58.260Z,11.30
2018-04-11T22:42:26.518Z,11.40
2018-04-11T22:44:54.839Z,11.30
2018-04-11T22:47:23.097Z,11.40
2018-04-11T22:49:51.362Z,11.40
2018-04-11T22:52:19.665Z,11.40
2018-04-11T22:54:47.957Z,11.40
2018-04-11T22:57:16.250Z,11.40
2018-04-11T22:59:44.533Z,11.40
2018-04-11T23:02:12.833Z,11.40
2018-04-11T23:04:41.105Z,11.30
2018-04-11T23:07:09.410Z,11.40
2018-04-11T23:09:36.958Z,11.40
2018-04-11T23:12:06.403Z,11.40
2018-04-11T23:14:35.223Z,11.50
2018-04-11T23:17:03.517Z,11.40
2018-04-11T23:19:31.823Z,11.40
2018-04-11T23:22:01.376Z,11.40
2018-04-11T23:24:30.724Z,11.40
2018-04-11T23:26:58.987Z,11.40
2018-04-11T23:29:27.295Z,11.50
2018-04-11T23:31:55.550Z,11.40
2018-04-11T23:34:23.815Z,11.40
2018-04-11T23:36:52.105Z,11.40
2018-04-11T23:39:20.382Z,11.40
2018-04-11T23:41:48.686Z,11.40
2018-04-11T23:44:16.961Z,11.40
2018-04-11T23:46:45.299Z,11.40
2018-04-11T23:49:21.874Z,11.40
2018-04-11T23:51:50.169Z,11.40
2018-04-11T23:54:18.424Z,11.30
2018-04-11T23:56:46.719Z,11.30
2018-04-11T23:59:14.245Z,11.30
